sensor_id;sensor_type;location;lat;lon;timestamp;P1;durP1;ratioP1;P2;durP2;ratioP2
32451;SDS011;45528;52.102;5.242;2023-03-05T00:02:46;13.4;;;3.5;;
32451;SDS011;45528;52.102;5.242;2023-03-05T00:04:22;12.6;;;3.2;;
32451;SDS011;45528;52.102;5.242;2023-03-05T00:05:58;13.4;;;3.4;;
32451;SDS011;45528;52.102;5.242;2023-03-05T00:09:11;12.0;;;3.2;;
32451;SDS011;45528;52.102;5.242;2023-03-05T00:10:53;14.1;;;3.5;;
32451;SDS011;45528;52.102;5.242;2023-03-05T00:12:30;12.7;;;3.4;;
32451;SDS011;45528;52.102;5.242;2023-03-05T00:14:07;14.7;;;3.2;;
32451;SDS011;45528;52.102;5.242;2023-03-05T00:17:21;15.0;;;2.9;;
32451;SDS011;45528;52.102;5.242;2023-03-05T00:18:58;12.2;;;3.0;;
32451;SDS011;45528;52.102;5.242;2023-03-05T00:20:35;11.5;;;2.9;;
32451;SDS011;45528;52.102;5.242;2023-03-05T00:25:26;13.9;;;3.4;;
32451;SDS011;45528;52.102;5.242;2023-03-05T00:27:02;10.4;;;2.9;;
32451;SDS011;45528;52.102;5.242;2023-03-05T00:31:53;10.8;;;2.8;;
32451;SDS011;45528;52.102;5.242;2023-03-05T00:33:28;8.4;;;2.31;;
32451;SDS011;45528;52.102;5.242;2023-03-05T00:35:05;10.5;;;2.6;;
32451;SDS011;45528;52.102;5.242;2023-03-05T00:38:21;11.4;;;2.7;;
32451;SDS011;45528;52.102;5.242;2023-03-05T00:39:57;11.4;;;2.7;;
32451;SDS011;45528;52.102;5.242;2023-03-05T00:41:33;15.3;;;2.8;;
32451;SDS011;45528;52.102;5.242;2023-03-05T00:44:46;10.4;;;2.8;;
32451;SDS011;45528;52.102;5.242;2023-03-05T00:46:22;10.9;;;2.4;;
32451;SDS011;45528;52.102;5.242;2023-03-05T00:47:59;12.0;;;2.7;;
32451;SDS011;45528;52.102;5.242;2023-03-05T00:51:12;9.81;;;2.5;;
32451;SDS011;45528;52.102;5.242;2023-03-05T00:52:49;12.4;;;2.8;;
32451;SDS011;45528;52.102;5.242;2023-03-05T00:54:26;12.8;;;2.8;;
32451;SDS011;45528;52.102;5.242;2023-03-05T00:56:03;10.5;;;2.8;;
32451;SDS011;45528;52.102;5.242;2023-03-05T00:59:16;12.8;;;2.7;;
32451;SDS011;45528;52.102;5.242;2023-03-05T01:00:55;9.31;;;2.4;;
32451;SDS011;45528;52.102;5.242;2023-03-05T01:02:32;11.6;;;2.9;;
32451;SDS011;45528;52.102;5.242;2023-03-05T01:05:45;6.7;;;2.31;;
32451;SDS011;45528;52.102;5.242;2023-03-05T01:07:21;9.6;;;2.7;;
32451;SDS011;45528;52.102;5.242;2023-03-05T01:08:57;8.9;;;2.4;;
32451;SDS011;45528;52.102;5.242;2023-03-05T01:10:33;11.5;;;2.6;;
32451;SDS011;45528;52.102;5.242;2023-03-05T01:13:45;9.0;;;2.7;;
32451;SDS011;45528;52.102;5.242;2023-03-05T01:15:23;9.9;;;2.6;;
32451;SDS011;45528;52.102;5.242;2023-03-05T01:17:00;10.8;;;2.9;;
32451;SDS011;45528;52.102;5.242;2023-03-05T01:20:16;8.5;;;2.31;;
32451;SDS011;45528;52.102;5.242;2023-03-05T01:21:55;14.5;;;2.4;;
32451;SDS011;45528;52.102;5.242;2023-03-05T01:23:32;12.6;;;2.7;;
32451;SDS011;45528;52.102;5.242;2023-03-05T01:26:47;8.71;;;2.6;;
32451;SDS011;45528;52.102;5.242;2023-03-05T01:28:23;7.4;;;2.6;;
32451;SDS011;45528;52.102;5.242;2023-03-05T01:30:00;10.4;;;2.9;;
32451;SDS011;45528;52.102;5.242;2023-03-05T01:31:36;10.21;;;2.6;;
32451;SDS011;45528;52.102;5.242;2023-03-05T01:34:49;9.31;;;2.9;;
32451;SDS011;45528;52.102;5.242;2023-03-05T01:36:25;10.6;;;2.7;;
32451;SDS011;45528;52.102;5.242;2023-03-05T01:38:01;10.0;;;2.9;;
32451;SDS011;45528;52.102;5.242;2023-03-05T01:41:15;12.3;;;3.0;;
32451;SDS011;45528;52.102;5.242;2023-03-05T01:42:55;10.3;;;2.5;;
32451;SDS011;45528;52.102;5.242;2023-03-05T01:44:35;12.3;;;3.1;;
32451;SDS011;45528;52.102;5.242;2023-03-05T01:46:43;14.2;;;3.1;;
32451;SDS011;45528;52.102;5.242;2023-03-05T01:48:19;13.7;;;3.4;;
32451;SDS011;45528;52.102;5.242;2023-03-05T01:51:34;13.1;;;2.9;;
32451;SDS011;45528;52.102;5.242;2023-03-05T01:53:16;10.5;;;2.9;;
32451;SDS011;45528;52.102;5.242;2023-03-05T01:54:53;15.7;;;3.1;;
32451;SDS011;45528;52.102;5.242;2023-03-05T01:58:12;14.3;;;3.2;;
32451;SDS011;45528;52.102;5.242;2023-03-05T01:59:49;11.8;;;3.2;;
32451;SDS011;45528;52.102;5.242;2023-03-05T02:01:31;10.21;;;2.8;;
32451;SDS011;45528;52.102;5.242;2023-03-05T02:03:18;11.1;;;3.0;;
32451;SDS011;45528;52.102;5.242;2023-03-05T02:04:59;15.8;;;3.4;;
32451;SDS011;45528;52.102;5.242;2023-03-05T02:08:18;13.6;;;3.3;;
32451;SDS011;45528;52.102;5.242;2023-03-05T02:09:57;12.1;;;3.4;;
32451;SDS011;45528;52.102;5.242;2023-03-05T02:11:34;10.9;;;3.2;;
32451;SDS011;45528;52.102;5.242;2023-03-05T02:14:52;15.3;;;3.4;;
32451;SDS011;45528;52.102;5.242;2023-03-05T02:16:29;10.1;;;3.2;;
32451;SDS011;45528;52.102;5.242;2023-03-05T02:18:07;13.1;;;3.4;;
32451;SDS011;45528;52.102;5.242;2023-03-05T02:19:46;16.2;;;3.5;;
32451;SDS011;45528;52.102;5.242;2023-03-05T02:23:10;12.2;;;3.0;;
32451;SDS011;45528;52.102;5.242;2023-03-05T02:24:48;18.0;;;3.9;;
32451;SDS011;45528;52.102;5.242;2023-03-05T02:26:26;11.9;;;3.3;;
32451;SDS011;45528;52.102;5.242;2023-03-05T02:28:02;11.7;;;3.4;;
32451;SDS011;45528;52.102;5.242;2023-03-05T02:31:23;15.1;;;3.7;;
32451;SDS011;45528;52.102;5.242;2023-03-05T02:33:00;11.1;;;3.2;;
32451;SDS011;45528;52.102;5.242;2023-03-05T02:34:38;9.5;;;3.1;;
32451;SDS011;45528;52.102;5.242;2023-03-05T02:37:52;15.0;;;3.1;;
32451;SDS011;45528;52.102;5.242;2023-03-05T02:39:29;10.3;;;3.1;;
32451;SDS011;45528;52.102;5.242;2023-03-05T02:41:06;12.4;;;3.3;;
32451;SDS011;45528;52.102;5.242;2023-03-05T02:42:43;13.6;;;3.1;;
32451;SDS011;45528;52.102;5.242;2023-03-05T02:45:57;11.8;;;2.8;;
32451;SDS011;45528;52.102;5.242;2023-03-05T02:47:34;10.0;;;2.9;;
32451;SDS011;45528;52.102;5.242;2023-03-05T02:49:10;12.7;;;2.9;;
32451;SDS011;45528;52.102;5.242;2023-03-05T02:52:23;14.1;;;3.1;;
32451;SDS011;45528;52.102;5.242;2023-03-05T02:53:59;12.3;;;2.8;;
32451;SDS011;45528;52.102;5.242;2023-03-05T02:55:36;10.7;;;2.8;;
32451;SDS011;45528;52.102;5.242;2023-03-05T02:58:49;12.9;;;2.9;;
32451;SDS011;45528;52.102;5.242;2023-03-05T03:00:25;9.21;;;2.8;;
32451;SDS011;45528;52.102;5.242;2023-03-05T03:02:02;12.0;;;2.31;;
32451;SDS011;45528;52.102;5.242;2023-03-05T03:03:38;12.2;;;2.4;;
32451;SDS011;45528;52.102;5.242;2023-03-05T03:06:52;9.6;;;2.1;;
32451;SDS011;45528;52.102;5.242;2023-03-05T03:08:29;11.9;;;2.31;;
32451;SDS011;45528;52.102;5.242;2023-03-05T03:10:05;10.3;;;2.4;;
32451;SDS011;45528;52.102;5.242;2023-03-05T03:13:18;8.81;;;2.21;;
32451;SDS011;45528;52.102;5.242;2023-03-05T03:14:54;9.4;;;2.31;;
32451;SDS011;45528;52.102;5.242;2023-03-05T03:16:32;8.5;;;1.9;;
32451;SDS011;45528;52.102;5.242;2023-03-05T03:19:46;9.1;;;2.0;;
32451;SDS011;45528;52.102;5.242;2023-03-05T03:21:23;10.7;;;2.0;;
32451;SDS011;45528;52.102;5.242;2023-03-05T03:23:00;8.2;;;2.1;;
32451;SDS011;45528;52.102;5.242;2023-03-05T03:24:36;11.3;;;2.0;;
32451;SDS011;45528;52.102;5.242;2023-03-05T03:27:51;11.1;;;2.1;;
32451;SDS011;45528;52.102;5.242;2023-03-05T03:29:28;8.9;;;1.7;;
32451;SDS011;45528;52.102;5.242;2023-03-05T03:31:05;9.71;;;2.31;;
32451;SDS011;45528;52.102;5.242;2023-03-05T03:34:17;8.4;;;1.8;;
32451;SDS011;45528;52.102;5.242;2023-03-05T03:35:55;14.0;;;2.21;;
32451;SDS011;45528;52.102;5.242;2023-03-05T03:37:31;8.71;;;1.5;;
32451;SDS011;45528;52.102;5.242;2023-03-05T03:39:08;12.0;;;1.9;;
32451;SDS011;45528;52.102;5.242;2023-03-05T03:42:22;8.81;;;1.6;;
32451;SDS011;45528;52.102;5.242;2023-03-05T03:43:59;10.21;;;1.8;;
32451;SDS011;45528;52.102;5.242;2023-03-05T03:45:38;12.0;;;2.0;;
32451;SDS011;45528;52.102;5.242;2023-03-05T03:48:53;5.8;;;1.5;;
32451;SDS011;45528;52.102;5.242;2023-03-05T03:50:29;6.8;;;1.6;;
32451;SDS011;45528;52.102;5.242;2023-03-05T03:52:06;8.1;;;1.8;;
32451;SDS011;45528;52.102;5.242;2023-03-05T03:55:19;8.81;;;1.6;;
32451;SDS011;45528;52.102;5.242;2023-03-05T03:56:55;7.2;;;1.5;;
32451;SDS011;45528;52.102;5.242;2023-03-05T03:58:31;7.4;;;1.6;;
32451;SDS011;45528;52.102;5.242;2023-03-05T04:00:08;6.1;;;1.7;;
32451;SDS011;45528;52.102;5.242;2023-03-05T04:03:22;4.41;;;1.4;;
32451;SDS011;45528;52.102;5.242;2023-03-05T04:04:58;4.61;;;1.11;;
32451;SDS011;45528;52.102;5.242;2023-03-05T04:06:34;5.7;;;1.5;;
32451;SDS011;45528;52.102;5.242;2023-03-05T04:09:46;6.9;;;1.4;;
32451;SDS011;45528;52.102;5.242;2023-03-05T04:11:22;8.2;;;1.4;;
32451;SDS011;45528;52.102;5.242;2023-03-05T04:12:59;7.5;;;1.5;;
32451;SDS011;45528;52.102;5.242;2023-03-05T04:16:13;6.5;;;1.5;;
32451;SDS011;45528;52.102;5.242;2023-03-05T04:17:50;11.7;;;1.9;;
32451;SDS011;45528;52.102;5.242;2023-03-05T04:19:26;7.0;;;1.7;;
32451;SDS011;45528;52.102;5.242;2023-03-05T04:21:02;9.6;;;1.8;;
32451;SDS011;45528;52.102;5.242;2023-03-05T04:24:16;8.2;;;1.6;;
32451;SDS011;45528;52.102;5.242;2023-03-05T04:25:53;9.71;;;1.9;;
32451;SDS011;45528;52.102;5.242;2023-03-05T04:27:29;7.7;;;1.8;;
32451;SDS011;45528;52.102;5.242;2023-03-05T04:30:41;8.71;;;1.7;;
32451;SDS011;45528;52.102;5.242;2023-03-05T04:32:17;9.5;;;1.8;;
32451;SDS011;45528;52.102;5.242;2023-03-05T04:33:53;9.0;;;1.8;;
32451;SDS011;45528;52.102;5.242;2023-03-05T04:37:07;8.31;;;1.8;;
32451;SDS011;45528;52.102;5.242;2023-03-05T04:38:43;9.21;;;2.0;;
32451;SDS011;45528;52.102;5.242;2023-03-05T04:40:20;8.71;;;1.6;;
32451;SDS011;45528;52.102;5.242;2023-03-05T04:41:57;6.0;;;1.6;;
32451;SDS011;45528;52.102;5.242;2023-03-05T04:45:10;12.2;;;1.8;;
32451;SDS011;45528;52.102;5.242;2023-03-05T04:46:46;7.5;;;1.5;;
32451;SDS011;45528;52.102;5.242;2023-03-05T04:48:23;6.9;;;1.4;;
32451;SDS011;45528;52.102;5.242;2023-03-05T04:51:36;6.4;;;1.6;;
32451;SDS011;45528;52.102;5.242;2023-03-05T04:53:12;7.2;;;1.5;;
32451;SDS011;45528;52.102;5.242;2023-03-05T04:54:48;6.1;;;1.7;;
32451;SDS011;45528;52.102;5.242;2023-03-05T04:58:01;7.0;;;1.7;;
32451;SDS011;45528;52.102;5.242;2023-03-05T04:59:38;6.9;;;1.6;;
32451;SDS011;45528;52.102;5.242;2023-03-05T05:01:14;7.8;;;1.5;;
32451;SDS011;45528;52.102;5.242;2023-03-05T05:02:51;8.5;;;1.7;;
32451;SDS011;45528;52.102;5.242;2023-03-05T05:06:06;10.3;;;2.31;;
32451;SDS011;45528;52.102;5.242;2023-03-05T05:07:43;6.0;;;1.4;;
32451;SDS011;45528;52.102;5.242;2023-03-05T05:09:19;6.7;;;1.5;;
32451;SDS011;45528;52.102;5.242;2023-03-05T05:12:35;7.9;;;1.9;;
32451;SDS011;45528;52.102;5.242;2023-03-05T05:14:12;6.4;;;1.3;;
32451;SDS011;45528;52.102;5.242;2023-03-05T05:15:48;4.8;;;1.5;;
32451;SDS011;45528;52.102;5.242;2023-03-05T05:19:02;5.2;;;1.6;;
32451;SDS011;45528;52.102;5.242;2023-03-05T05:20:38;4.91;;;1.7;;
32451;SDS011;45528;52.102;5.242;2023-03-05T05:22:14;4.91;;;1.4;;
32451;SDS011;45528;52.102;5.242;2023-03-05T05:23:50;10.8;;;1.9;;
32451;SDS011;45528;52.102;5.242;2023-03-05T05:27:03;7.3;;;1.7;;
32451;SDS011;45528;52.102;5.242;2023-03-05T05:28:39;6.6;;;1.6;;
32451;SDS011;45528;52.102;5.242;2023-03-05T05:30:16;5.7;;;1.9;;
32451;SDS011;45528;52.102;5.242;2023-03-05T05:33:29;5.0;;;1.6;;
32451;SDS011;45528;52.102;5.242;2023-03-05T05:35:06;9.9;;;1.9;;
32451;SDS011;45528;52.102;5.242;2023-03-05T05:36:42;7.6;;;1.7;;
32451;SDS011;45528;52.102;5.242;2023-03-05T05:39:57;5.9;;;1.6;;
32451;SDS011;45528;52.102;5.242;2023-03-05T05:41:34;6.6;;;1.8;;
32451;SDS011;45528;52.102;5.242;2023-03-05T05:43:10;5.4;;;1.6;;
32451;SDS011;45528;52.102;5.242;2023-03-05T05:44:46;6.1;;;1.7;;
32451;SDS011;45528;52.102;5.242;2023-03-05T05:47:59;9.4;;;2.1;;
32451;SDS011;45528;52.102;5.242;2023-03-05T05:49:36;8.9;;;2.1;;
32451;SDS011;45528;52.102;5.242;2023-03-05T05:51:17;8.4;;;2.21;;
32451;SDS011;45528;52.102;5.242;2023-03-05T05:54:31;10.1;;;2.5;;
32451;SDS011;45528;52.102;5.242;2023-03-05T05:56:09;7.5;;;1.7;;
32451;SDS011;45528;52.102;5.242;2023-03-05T05:57:46;7.7;;;1.9;;
32451;SDS011;45528;52.102;5.242;2023-03-05T05:59:23;7.5;;;1.8;;
32451;SDS011;45528;52.102;5.242;2023-03-05T06:02:36;7.4;;;1.9;;
32451;SDS011;45528;52.102;5.242;2023-03-05T06:04:13;5.8;;;1.8;;
32451;SDS011;45528;52.102;5.242;2023-03-05T06:05:49;6.6;;;1.8;;
32451;SDS011;45528;52.102;5.242;2023-03-05T06:09:02;7.5;;;1.7;;
32451;SDS011;45528;52.102;5.242;2023-03-05T06:10:39;10.6;;;2.0;;
32451;SDS011;45528;52.102;5.242;2023-03-05T06:12:16;8.5;;;1.6;;
32451;SDS011;45528;52.102;5.242;2023-03-05T06:15:28;4.3;;;1.3;;
32451;SDS011;45528;52.102;5.242;2023-03-05T06:17:05;9.4;;;2.1;;
32451;SDS011;45528;52.102;5.242;2023-03-05T06:18:41;5.9;;;1.9;;
32451;SDS011;45528;52.102;5.242;2023-03-05T06:20:19;8.5;;;1.8;;
32451;SDS011;45528;52.102;5.242;2023-03-05T06:23:32;9.1;;;1.8;;
32451;SDS011;45528;52.102;5.242;2023-03-05T06:25:09;6.3;;;1.6;;
32451;SDS011;45528;52.102;5.242;2023-03-05T06:26:46;5.7;;;1.6;;
32451;SDS011;45528;52.102;5.242;2023-03-05T06:29:58;8.1;;;1.9;;
32451;SDS011;45528;52.102;5.242;2023-03-05T06:31:35;8.9;;;1.7;;
32451;SDS011;45528;52.102;5.242;2023-03-05T06:33:14;7.5;;;1.9;;
32451;SDS011;45528;52.102;5.242;2023-03-05T06:36:27;5.7;;;1.4;;
32451;SDS011;45528;52.102;5.242;2023-03-05T06:38:04;6.4;;;1.7;;
32451;SDS011;45528;52.102;5.242;2023-03-05T06:39:42;8.31;;;1.8;;
32451;SDS011;45528;52.102;5.242;2023-03-05T06:41:20;6.3;;;1.6;;
32451;SDS011;45528;52.102;5.242;2023-03-05T06:44:37;6.6;;;1.3;;
32451;SDS011;45528;52.102;5.242;2023-03-05T06:46:15;3.3;;;1.4;;
32451;SDS011;45528;52.102;5.242;2023-03-05T06:47:53;5.11;;;1.4;;
32451;SDS011;45528;52.102;5.242;2023-03-05T06:51:11;7.0;;;1.6;;
32451;SDS011;45528;52.102;5.242;2023-03-05T06:52:49;6.1;;;1.6;;
32451;SDS011;45528;52.102;5.242;2023-03-05T06:54:25;6.2;;;1.7;;
32451;SDS011;45528;52.102;5.242;2023-03-05T06:56:01;6.8;;;1.7;;
32451;SDS011;45528;52.102;5.242;2023-03-05T06:59:14;5.5;;;1.5;;
32451;SDS011;45528;52.102;5.242;2023-03-05T07:00:51;6.1;;;1.6;;
32451;SDS011;45528;52.102;5.242;2023-03-05T07:02:27;4.61;;;1.3;;
32451;SDS011;45528;52.102;5.242;2023-03-05T07:05:41;5.8;;;1.3;;
32451;SDS011;45528;52.102;5.242;2023-03-05T07:07:18;4.8;;;1.7;;
32451;SDS011;45528;52.102;5.242;2023-03-05T07:08:54;5.8;;;1.6;;
32451;SDS011;45528;52.102;5.242;2023-03-05T07:10:31;4.8;;;1.6;;
32451;SDS011;45528;52.102;5.242;2023-03-05T07:13:49;7.5;;;1.6;;
32451;SDS011;45528;52.102;5.242;2023-03-05T07:15:26;10.0;;;1.5;;
32451;SDS011;45528;52.102;5.242;2023-03-05T07:17:02;6.5;;;1.6;;
32451;SDS011;45528;52.102;5.242;2023-03-05T07:20:17;5.4;;;1.4;;
32451;SDS011;45528;52.102;5.242;2023-03-05T07:21:53;7.9;;;1.4;;
32451;SDS011;45528;52.102;5.242;2023-03-05T07:23:30;6.2;;;1.5;;
32451;SDS011;45528;52.102;5.242;2023-03-05T07:25:07;5.8;;;1.8;;
32451;SDS011;45528;52.102;5.242;2023-03-05T07:28:20;5.11;;;1.6;;
32451;SDS011;45528;52.102;5.242;2023-03-05T07:29:57;4.3;;;1.3;;
32451;SDS011;45528;52.102;5.242;2023-03-05T07:31:33;4.3;;;1.4;;
32451;SDS011;45528;52.102;5.242;2023-03-05T07:34:46;5.7;;;1.2;;
32451;SDS011;45528;52.102;5.242;2023-03-05T07:36:22;7.6;;;1.7;;
32451;SDS011;45528;52.102;5.242;2023-03-05T07:37:59;6.3;;;1.3;;
32451;SDS011;45528;52.102;5.242;2023-03-05T07:41:12;4.91;;;1.2;;
32451;SDS011;45528;52.102;5.242;2023-03-05T07:42:50;4.41;;;1.4;;
32451;SDS011;45528;52.102;5.242;2023-03-05T07:44:27;5.7;;;1.5;;
32451;SDS011;45528;52.102;5.242;2023-03-05T07:46:03;4.41;;;1.3;;
32451;SDS011;45528;52.102;5.242;2023-03-05T07:49:18;5.7;;;1.6;;
32451;SDS011;45528;52.102;5.242;2023-03-05T07:50:59;7.0;;;1.5;;
32451;SDS011;45528;52.102;5.242;2023-03-05T07:52:40;5.6;;;1.5;;
32451;SDS011;45528;52.102;5.242;2023-03-05T07:55:53;4.8;;;1.11;;
32451;SDS011;45528;52.102;5.242;2023-03-05T07:57:30;4.41;;;1.3;;
32451;SDS011;45528;52.102;5.242;2023-03-05T07:59:07;5.2;;;1.11;;
32451;SDS011;45528;52.102;5.242;2023-03-05T08:00:46;4.2;;;1.2;;
32451;SDS011;45528;52.102;5.242;2023-03-05T08:03:59;3.1;;;1.4;;
32451;SDS011;45528;52.102;5.242;2023-03-05T08:05:37;3.9;;;1.2;;
32451;SDS011;45528;52.102;5.242;2023-03-05T08:07:14;5.0;;;1.3;;
32451;SDS011;45528;52.102;5.242;2023-03-05T08:10:28;4.5;;;1.5;;
32451;SDS011;45528;52.102;5.242;2023-03-05T08:12:04;3.9;;;1.4;;
32451;SDS011;45528;52.102;5.242;2023-03-05T08:13:42;5.0;;;1.6;;
32451;SDS011;45528;52.102;5.242;2023-03-05T08:15:19;4.7;;;1.4;;
32451;SDS011;45528;52.102;5.242;2023-03-05T08:18:32;4.5;;;1.7;;
32451;SDS011;45528;52.102;5.242;2023-03-05T08:20:09;5.0;;;1.7;;
32451;SDS011;45528;52.102;5.242;2023-03-05T08:21:47;4.0;;;1.4;;
32451;SDS011;45528;52.102;5.242;2023-03-05T08:25:00;4.5;;;1.5;;
32451;SDS011;45528;52.102;5.242;2023-03-05T08:26:38;4.5;;;1.4;;
32451;SDS011;45528;52.102;5.242;2023-03-05T08:28:16;3.7;;;1.4;;
32451;SDS011;45528;52.102;5.242;2023-03-05T08:31:28;3.6;;;1.2;;
32451;SDS011;45528;52.102;5.242;2023-03-05T08:33:05;4.0;;;1.3;;
32451;SDS011;45528;52.102;5.242;2023-03-05T08:34:41;4.2;;;1.3;;
32451;SDS011;45528;52.102;5.242;2023-03-05T08:36:17;3.2;;;1.2;;
32451;SDS011;45528;52.102;5.242;2023-03-05T08:39:31;3.3;;;1.11;;
32451;SDS011;45528;52.102;5.242;2023-03-05T08:41:07;3.4;;;1.5;;
32451;SDS011;45528;52.102;5.242;2023-03-05T08:42:43;10.8;;;4.7;;
32451;SDS011;45528;52.102;5.242;2023-03-05T08:45:56;5.8;;;2.21;;
32451;SDS011;45528;52.102;5.242;2023-03-05T08:47:35;2.21;;;1.3;;
32451;SDS011;45528;52.102;5.242;2023-03-05T08:49:13;3.7;;;1.4;;
32451;SDS011;45528;52.102;5.242;2023-03-05T08:52:26;4.7;;;1.4;;
32451;SDS011;45528;52.102;5.242;2023-03-05T08:54:02;3.9;;;1.2;;
32451;SDS011;45528;52.102;5.242;2023-03-05T08:55:39;3.5;;;1.6;;
32451;SDS011;45528;52.102;5.242;2023-03-05T08:57:16;3.9;;;1.2;;
32451;SDS011;45528;52.102;5.242;2023-03-05T09:00:28;5.3;;;1.5;;
32451;SDS011;45528;52.102;5.242;2023-03-05T09:02:05;2.8;;;1.4;;
32451;SDS011;45528;52.102;5.242;2023-03-05T09:03:41;3.1;;;1.5;;
32451;SDS011;45528;52.102;5.242;2023-03-05T09:06:54;4.0;;;1.4;;
32451;SDS011;45528;52.102;5.242;2023-03-05T09:08:32;4.0;;;2.0;;
32451;SDS011;45528;52.102;5.242;2023-03-05T09:10:09;4.91;;;1.7;;
32451;SDS011;45528;52.102;5.242;2023-03-05T09:11:47;3.4;;;1.4;;
32451;SDS011;45528;52.102;5.242;2023-03-05T09:15:01;3.9;;;1.5;;
32451;SDS011;45528;52.102;5.242;2023-03-05T09:16:38;3.8;;;1.6;;
32451;SDS011;45528;52.102;5.242;2023-03-05T09:18:15;4.61;;;1.4;;
32451;SDS011;45528;52.102;5.242;2023-03-05T09:21:27;4.61;;;1.6;;
32451;SDS011;45528;52.102;5.242;2023-03-05T09:23:03;3.4;;;1.2;;
32451;SDS011;45528;52.102;5.242;2023-03-05T09:24:39;3.7;;;1.7;;
32451;SDS011;45528;52.102;5.242;2023-03-05T09:27:53;5.2;;;1.4;;
32451;SDS011;45528;52.102;5.242;2023-03-05T09:29:30;5.2;;;1.4;;
32451;SDS011;45528;52.102;5.242;2023-03-05T09:31:06;6.6;;;1.7;;
32451;SDS011;45528;52.102;5.242;2023-03-05T09:32:44;4.5;;;1.5;;
32451;SDS011;45528;52.102;5.242;2023-03-05T09:35:57;6.7;;;1.6;;
32451;SDS011;45528;52.102;5.242;2023-03-05T09:37:34;3.9;;;1.8;;
32451;SDS011;45528;52.102;5.242;2023-03-05T09:39:11;6.0;;;1.6;;
32451;SDS011;45528;52.102;5.242;2023-03-05T09:42:43;4.7;;;1.7;;
32451;SDS011;45528;52.102;5.242;2023-03-05T09:44:37;5.6;;;1.7;;
32451;SDS011;45528;52.102;5.242;2023-03-05T09:46:25;5.11;;;1.5;;
32451;SDS011;45528;52.102;5.242;2023-03-05T09:48:14;3.7;;;1.5;;
32451;SDS011;45528;52.102;5.242;2023-03-05T09:49:57;4.61;;;2.1;;
32451;SDS011;45528;52.102;5.242;2023-03-05T09:51:38;4.1;;;1.3;;
32451;SDS011;45528;52.102;5.242;2023-03-05T09:55:08;4.61;;;1.11;;
32451;SDS011;45528;52.102;5.242;2023-03-05T09:57:00;3.9;;;1.2;;
32451;SDS011;45528;52.102;5.242;2023-03-05T09:58:40;3.6;;;1.3;;
32451;SDS011;45528;52.102;5.242;2023-03-05T10:00:22;5.4;;;1.2;;
32451;SDS011;45528;52.102;5.242;2023-03-05T10:02:12;5.5;;;1.0;;
32451;SDS011;45528;52.102;5.242;2023-03-05T10:05:42;3.9;;;1.11;;
32451;SDS011;45528;52.102;5.242;2023-03-05T10:07:26;2.9;;;1.11;;
32451;SDS011;45528;52.102;5.242;2023-03-05T10:09:06;4.1;;;1.0;;
32451;SDS011;45528;52.102;5.242;2023-03-05T10:10:51;7.7;;;1.4;;
32451;SDS011;45528;52.102;5.242;2023-03-05T10:12:33;3.9;;;1.4;;
32451;SDS011;45528;52.102;5.242;2023-03-05T10:16:03;3.9;;;1.4;;
32451;SDS011;45528;52.102;5.242;2023-03-05T10:18:09;3.7;;;1.11;;
32451;SDS011;45528;52.102;5.242;2023-03-05T10:20:03;5.6;;;1.0;;
32451;SDS011;45528;52.102;5.242;2023-03-05T10:21:56;3.9;;;1.0;;
32451;SDS011;45528;52.102;5.242;2023-03-05T10:23:55;3.4;;;1.0;;
32451;SDS011;45528;52.102;5.242;2023-03-05T10:25:44;3.2;;;1.0;;
32451;SDS011;45528;52.102;5.242;2023-03-05T10:27:49;5.0;;;1.11;;
32451;SDS011;45528;52.102;5.242;2023-03-05T10:29:39;5.6;;;1.0;;
32451;SDS011;45528;52.102;5.242;2023-03-05T10:31:55;5.3;;;1.11;;
32451;SDS011;45528;52.102;5.242;2023-03-05T10:33:45;4.0;;;1.11;;
32451;SDS011;45528;52.102;5.242;2023-03-05T10:35:41;3.5;;;0.9;;
32451;SDS011;45528;52.102;5.242;2023-03-05T10:38:15;5.3;;;1.11;;
32451;SDS011;45528;52.102;5.242;2023-03-05T10:40:09;4.1;;;1.0;;
32451;SDS011;45528;52.102;5.242;2023-03-05T10:41:56;3.5;;;0.9;;
32451;SDS011;45528;52.102;5.242;2023-03-05T10:45:30;4.5;;;1.0;;
32451;SDS011;45528;52.102;5.242;2023-03-05T10:47:13;3.1;;;1.0;;
32451;SDS011;45528;52.102;5.242;2023-03-05T10:48:57;5.11;;;1.0;;
32451;SDS011;45528;52.102;5.242;2023-03-05T10:50:39;3.9;;;1.0;;
32451;SDS011;45528;52.102;5.242;2023-03-05T10:52:21;2.8;;;0.7;;
32451;SDS011;45528;52.102;5.242;2023-03-05T10:55:53;3.5;;;1.0;;
32451;SDS011;45528;52.102;5.242;2023-03-05T10:57:30;5.0;;;0.9;;
32451;SDS011;45528;52.102;5.242;2023-03-05T10:59:06;3.0;;;0.7;;
32451;SDS011;45528;52.102;5.242;2023-03-05T11:04:29;6.0;;;1.0;;
32451;SDS011;45528;52.102;5.242;2023-03-05T11:06:10;4.3;;;0.9;;
32451;SDS011;45528;52.102;5.242;2023-03-05T11:07:48;2.8;;;0.9;;
32451;SDS011;45528;52.102;5.242;2023-03-05T11:09:26;2.9;;;0.7;;
32451;SDS011;45528;52.102;5.242;2023-03-05T11:11:07;4.0;;;1.2;;
32451;SDS011;45528;52.102;5.242;2023-03-05T11:14:26;3.5;;;0.9;;
32451;SDS011;45528;52.102;5.242;2023-03-05T11:16:05;2.9;;;0.9;;
32451;SDS011;45528;52.102;5.242;2023-03-05T11:18:02;5.11;;;1.2;;
32451;SDS011;45528;52.102;5.242;2023-03-05T11:19:53;3.0;;;0.7;;
32451;SDS011;45528;52.102;5.242;2023-03-05T11:21:31;3.0;;;0.7;;
32451;SDS011;45528;52.102;5.242;2023-03-05T11:25:03;5.4;;;0.9;;
32451;SDS011;45528;52.102;5.242;2023-03-05T11:26:52;3.9;;;0.9;;
32451;SDS011;45528;52.102;5.242;2023-03-05T11:28:32;4.3;;;1.3;;
32451;SDS011;45528;52.102;5.242;2023-03-05T11:30:17;2.6;;;0.8;;
32451;SDS011;45528;52.102;5.242;2023-03-05T11:33:54;3.9;;;0.8;;
32451;SDS011;45528;52.102;5.242;2023-03-05T11:35:34;4.2;;;0.8;;
32451;SDS011;45528;52.102;5.242;2023-03-05T11:37:18;5.2;;;0.9;;
32451;SDS011;45528;52.102;5.242;2023-03-05T11:38:59;2.5;;;0.7;;
32451;SDS011;45528;52.102;5.242;2023-03-05T11:40:45;2.8;;;0.8;;
32451;SDS011;45528;52.102;5.242;2023-03-05T11:44:00;2.9;;;1.4;;
32451;SDS011;45528;52.102;5.242;2023-03-05T11:45:41;2.6;;;0.8;;
32451;SDS011;45528;52.102;5.242;2023-03-05T11:47:22;3.1;;;0.6;;
32451;SDS011;45528;52.102;5.242;2023-03-05T11:49:03;3.9;;;0.8;;
32451;SDS011;45528;52.102;5.242;2023-03-05T11:52:21;4.2;;;0.9;;
32451;SDS011;45528;52.102;5.242;2023-03-05T11:54:05;5.0;;;1.11;;
32451;SDS011;45528;52.102;5.242;2023-03-05T11:55:48;5.3;;;1.0;;
32451;SDS011;45528;52.102;5.242;2023-03-05T11:57:27;2.5;;;0.7;;
32451;SDS011;45528;52.102;5.242;2023-03-05T11:59:17;2.7;;;0.8;;
32451;SDS011;45528;52.102;5.242;2023-03-05T12:02:35;5.11;;;0.8;;
32451;SDS011;45528;52.102;5.242;2023-03-05T12:04:13;3.0;;;0.8;;
32451;SDS011;45528;52.102;5.242;2023-03-05T12:05:51;3.6;;;0.6;;
32451;SDS011;45528;52.102;5.242;2023-03-05T12:07:33;3.2;;;0.9;;
32451;SDS011;45528;52.102;5.242;2023-03-05T12:10:59;4.0;;;0.9;;
32451;SDS011;45528;52.102;5.242;2023-03-05T12:12:51;2.31;;;0.8;;
32451;SDS011;45528;52.102;5.242;2023-03-05T12:14:35;4.3;;;0.9;;
32451;SDS011;45528;52.102;5.242;2023-03-05T12:16:21;4.1;;;0.7;;
32451;SDS011;45528;52.102;5.242;2023-03-05T12:18:09;6.6;;;0.9;;
32451;SDS011;45528;52.102;5.242;2023-03-05T12:21:38;4.8;;;0.8;;
32451;SDS011;45528;52.102;5.242;2023-03-05T12:23:17;5.2;;;0.9;;
32451;SDS011;45528;52.102;5.242;2023-03-05T12:25:15;6.1;;;1.0;;
32451;SDS011;45528;52.102;5.242;2023-03-05T12:27:09;3.6;;;1.0;;
32451;SDS011;45528;52.102;5.242;2023-03-05T12:29:12;3.1;;;0.9;;
32451;SDS011;45528;52.102;5.242;2023-03-05T12:31:04;5.0;;;1.2;;
32451;SDS011;45528;52.102;5.242;2023-03-05T12:33:00;4.1;;;1.6;;
32451;SDS011;45528;52.102;5.242;2023-03-05T12:36:31;4.0;;;1.6;;
32451;SDS011;45528;52.102;5.242;2023-03-05T12:38:17;6.6;;;2.21;;
32451;SDS011;45528;52.102;5.242;2023-03-05T12:40:18;6.4;;;1.9;;
32451;SDS011;45528;52.102;5.242;2023-03-05T12:41:57;5.11;;;1.8;;
32451;SDS011;45528;52.102;5.242;2023-03-05T12:43:33;5.3;;;1.8;;
32451;SDS011;45528;52.102;5.242;2023-03-05T12:47:18;4.3;;;2.4;;
32451;SDS011;45528;52.102;5.242;2023-03-05T12:50:48;4.5;;;1.8;;
32451;SDS011;45528;52.102;5.242;2023-03-05T12:52:26;6.8;;;2.0;;
32451;SDS011;45528;52.102;5.242;2023-03-05T12:54:20;6.5;;;1.9;;
32451;SDS011;45528;52.102;5.242;2023-03-05T12:56:16;4.3;;;1.7;;
32451;SDS011;45528;52.102;5.242;2023-03-05T12:57:57;2.9;;;1.5;;
32451;SDS011;45528;52.102;5.242;2023-03-05T13:01:38;4.8;;;1.5;;
32451;SDS011;45528;52.102;5.242;2023-03-05T13:03:21;4.61;;;1.8;;
32451;SDS011;45528;52.102;5.242;2023-03-05T13:05:04;3.2;;;1.6;;